Reno, NV

6:46 AM PDT on September 30, 2016 (GMT -0700)
Hidden Lake | | Change Station
Active Advisory: Fire Weather Warning

Elev 4652 ft 39.37 °N, 119.75 °W | Updated 10 minutes ago

Clear
Clear
54.0 °F
Feels Like 54.0 °F
N
7.3
Wind Variable Wind from WSW

Today
High -- | Low -- °F
--% Chance of Precip.
Yesterday
High -- | Low -- °F
Precip. -- in
Pressure 30.03 in
Visibility 10.0 miles
Clouds Clear
Dew Point 35 °F
Humidity 48%
Rainfall 0.00 in
Snow Depth Not available.
6:54 AM 6:42 PM
Waning Crescent, 0% visible
METAR KRNO 301255Z 34003KT 10SM CLR 12/02 A3016 RMK AO2 SLP168 T01220022
Pressure 30.03 in
Visibility 10.0 miles
Clouds Clear
Dew Point 35 °F
Humidity 48%
Rainfall 0.00 in
Snow Depth Not available.
6:54 AM 6:42 PM
Waning Crescent, 0% visible
METAR KRNO 301255Z 34003KT 10SM CLR 12/02 A3016 RMK AO2 SLP168 T01220022

10-Day Weather Forecast

Almanac

Astronomy

Sep. 30, 2016 Rise Set
Actual Time
Civil Twilight
Nautical Twilight
Astronomical Twilight
Moon
Length of Visible Light
Length of Day
Tomorrow will be .
, % of the Moon is Illuminated

Today's Extremes

State Highs State Lows

Community

WunderPhotos

Upload Photos

1,942,711 photos uploaded!

WunderBlog® & News

Nearby

Air Quality

  Air Quality AQ Index Pollutant
Not available.

Snow Depth

Station Depth Elevation

Earthquake Activity

City Distance Mag. Time & Date
Minimum magnitude displayed is 2.5.

Coastal Water Temperatures

Place Temperature

Stations

Nearby Weather Stations

Station Location Temp. Windchill Dew Point Humidity Wind Precip. Elev Updated Type
                   

Watches & Warnings

Fire Weather Warning
Issued: 5:30 AM PDT Sep. 30, 2016 – National Weather Service

... Red flag warning remains in effect from 11 am this morning to
8 PM PDT this evening for gusty winds and low humidity for the
Sierra front and the western Nevada basin and range...

* affected area... fire zone 450 western Nevada Sierra front and
fire zone 453 west central Nevada basin and range.

* Winds... southwest winds 15 to 25 mph with gusts up to 40 mph.

* Humidity..8 to 16 percent.

* Impacts... the combination of gusty winds and low humidity can
cause fire to rapidly grow in size and intensity before first
responders can contain them.

Precautionary/preparedness actions...

Avoid outdoor activities that can cause a spark near dry
vegetation... such as yard work... target shooting... or campfires.
Follow local fire restrictions. Check weather.Gov/Reno for updates
and livingwithfire.Info for preparedness tips.



Http://weather.Gov/Reno